Time;durP1;ratioP1;P1;durP2;ratioP2;P2;SDS_P1;SDS_P2;PMS_P1;PMS_P2;Temp;Humidity;BMP_temperature;BMP_pressure;BME280_temperature;BME280_humidity;BME280_pressure;Samples;Min_cycle;Max_cycle;Signal;HPM_P1;HPM_P2
2022/02/25 00:00:49;;;;;;;1.63;1.23;;;;;;;;;;5019219;28;20494;-81
2022/02/25 00:03:15;;;;;;;2.10;1.40;;;;;;;;;;5018319;28;20457;-80
2022/02/25 00:05:41;;;;;;;1.90;1.30;;;;;;;;;;5019698;28;20502;-81
2022/02/25 00:08:07;;;;;;;1.60;1.50;;;;;;;;;;5019271;28;20427;-81
2022/02/25 00:10:34;;;;;;;3.93;1.30;;;;;;;;;;5018038;28;20498;-81
2022/02/25 00:13:00;;;;;;;2.13;1.10;;;;;;;;;;5018816;28;20581;-81
2022/02/25 00:15:26;;;;;;;1.53;1.10;;;;;;;;;;5018523;28;20418;-81
2022/02/25 00:17:53;;;;;;;1.70;1.00;;;;;;;;;;5018430;28;20518;-81
2022/02/25 00:20:19;;;;;;;1.60;1.20;;;;;;;;;;5018134;28;20908;-81
2022/02/25 00:22:45;;;;;;;1.80;1.20;;;;;;;;;;5019532;28;20411;-80
2022/02/25 00:25:12;;;;;;;1.40;1.03;;;;;;;;;;5023442;28;20403;-80
2022/02/25 00:27:42;;;;;;;1.47;0.90;;;;;;;;;;5022043;28;20439;-80
2022/02/25 00:30:08;;;;;;;1.93;1.00;;;;;;;;;;5017598;28;20882;-80
2022/02/25 00:32:35;;;;;;;1.77;1.20;;;;;;;;;;5017457;28;20947;-81
2022/02/25 00:35:01;;;;;;;1.33;0.90;;;;;;;;;;5017911;28;20915;-80
2022/02/25 00:37:27;;;;;;;1.87;1.00;;;;;;;;;;5023504;28;20431;-81
2022/02/25 00:39:54;;;;;;;1.63;1.00;;;;;;;;;;5020147;28;20410;-81
2022/02/25 00:42:20;;;;;;;1.83;1.00;;;;;;;;;;5018845;28;20437;-80
2022/02/25 00:44:46;;;;;;;1.60;1.07;;;;;;;;;;5018487;28;20940;-81
2022/02/25 00:47:14;;;;;;;2.27;0.80;;;;;;;;;;5018979;28;20874;-81
2022/02/25 00:49:40;;;;;;;1.57;1.10;;;;;;;;;;5019022;28;20417;-81
2022/02/25 00:52:06;;;;;;;2.53;1.00;;;;;;;;;;5017860;28;20981;-81
2022/02/25 00:54:32;;;;;;;2.23;1.27;;;;;;;;;;5017293;28;20434;-81
2022/02/25 00:56:58;;;;;;;2.43;1.30;;;;;;;;;;5018627;28;20404;-81
2022/02/25 00:59:24;;;;;;;4.10;1.20;;;;;;;;;;5018594;28;20410;-82
2022/02/25 01:01:50;;;;;;;2.77;1.30;;;;;;;;;;5018569;28;20454;-81
2022/02/25 01:04:16;;;;;;;1.60;1.00;;;;;;;;;;5017522;28;20409;-79
2022/02/25 01:06:43;;;;;;;2.53;1.10;;;;;;;;;;5018384;28;20753;-82
2022/02/25 01:09:11;;;;;;;3.20;1.23;;;;;;;;;;5018963;28;20454;-81
2022/02/25 01:11:37;;;;;;;4.73;1.57;;;;;;;;;;5018134;28;20478;-81
2022/02/25 01:14:03;;;;;;;2.30;1.40;;;;;;;;;;5018126;28;20419;-82
2022/02/25 01:16:30;;;;;;;1.67;1.20;;;;;;;;;;5017790;28;20404;-82
2022/02/25 01:18:56;;;;;;;2.90;1.57;;;;;;;;;;5017897;28;20419;-82
2022/02/25 01:21:22;;;;;;;2.70;1.50;;;;;;;;;;5017713;28;20408;-82
2022/02/25 01:23:48;;;;;;;4.07;1.57;;;;;;;;;;5018153;28;20449;-81
2022/02/25 01:26:14;;;;;;;3.37;1.70;;;;;;;;;;5018023;28;20415;-82
2022/02/25 01:28:40;;;;;;;1.50;1.30;;;;;;;;;;5016570;28;20439;-81
2022/02/25 01:31:06;;;;;;;1.93;1.30;;;;;;;;;;5018171;28;20403;-82
2022/02/25 01:33:32;;;;;;;2.13;1.73;;;;;;;;;;5022043;28;20423;-79
2022/02/25 01:36:00;;;;;;;1.90;1.30;;;;;;;;;;5029177;28;20783;-82
2022/02/25 01:38:26;;;;;;;2.50;1.57;;;;;;;;;;5019635;28;21014;-81
2022/02/25 01:40:54;;;;;;;2.20;1.30;;;;;;;;;;5022775;28;20407;-79
2022/02/25 01:43:20;;;;;;;2.70;1.30;;;;;;;;;;5031967;28;20399;-80
2022/02/25 01:45:47;;;;;;;2.97;1.30;;;;;;;;;;5016914;28;20407;-81
2022/02/25 01:48:13;;;;;;;1.80;1.30;;;;;;;;;;5043819;23;20465;-77
2022/02/25 01:50:39;;;;;;;1.30;0.90;;;;;;;;;;5050542;28;20422;-76
2022/02/25 01:53:06;;;;;;;2.97;1.10;;;;;;;;;;5053047;28;20511;-76
2022/02/25 01:55:33;;;;;;;1.40;1.00;;;;;;;;;;5053215;28;20428;-76
2022/02/25 01:57:59;;;;;;;2.30;1.20;;;;;;;;;;5052487;28;20442;-75
2022/02/25 02:00:26;;;;;;;2.53;1.10;;;;;;;;;;5052737;28;20409;-76
2022/02/25 02:02:52;;;;;;;2.80;1.27;;;;;;;;;;5052971;28;20451;-76
2022/02/25 02:05:18;;;;;;;1.30;0.90;;;;;;;;;;5053126;28;20402;-76
2022/02/25 02:07:45;;;;;;;2.20;1.20;;;;;;;;;;5052769;28;20467;-75
2022/02/25 02:10:11;;;;;;;1.50;1.03;;;;;;;;;;5052975;28;21051;-76
2022/02/25 02:12:37;;;;;;;1.90;1.10;;;;;;;;;;5053009;28;20860;-76
2022/02/25 02:15:04;;;;;;;1.40;1.00;;;;;;;;;;5054295;28;20773;-76
2022/02/25 02:17:31;;;;;;;3.87;1.20;;;;;;;;;;5056371;28;20480;-76
2022/02/25 02:19:57;;;;;;;3.13;1.30;;;;;;;;;;5056186;28;20850;-76
2022/02/25 02:22:26;;;;;;;1.27;0.90;;;;;;;;;;5056251;28;20409;-76
2022/02/25 02:24:52;;;;;;;1.60;1.00;;;;;;;;;;5056510;28;20766;-76
2022/02/25 02:27:19;;;;;;;3.13;1.13;;;;;;;;;;5056011;28;20414;-76
2022/02/25 02:29:45;;;;;;;3.50;1.07;;;;;;;;;;5054462;28;20433;-76
2022/02/25 02:32:11;;;;;;;1.53;1.00;;;;;;;;;;5055666;28;20782;-75
2022/02/25 02:34:38;;;;;;;3.10;1.37;;;;;;;;;;5055752;28;20879;-76
2022/02/25 02:37:07;;;;;;;1.90;1.00;;;;;;;;;;5055708;28;20401;-77
2022/02/25 02:39:33;;;;;;;3.80;1.40;;;;;;;;;;5055728;28;20413;-76
2022/02/25 02:41:59;;;;;;;1.57;1.03;;;;;;;;;;5055991;28;20897;-76
2022/02/25 02:44:25;;;;;;;1.50;1.00;;;;;;;;;;5055764;28;20401;-76
2022/02/25 02:46:51;;;;;;;2.33;1.07;;;;;;;;;;5055837;28;20402;-76
2022/02/25 02:49:17;;;;;;;2.33;1.00;;;;;;;;;;5055410;28;20471;-76
2022/02/25 02:51:43;;;;;;;1.50;1.00;;;;;;;;;;5055607;28;20455;-77
2022/02/25 02:54:10;;;;;;;3.10;1.30;;;;;;;;;;5055809;28;20400;-77
2022/02/25 02:56:36;;;;;;;1.40;0.80;;;;;;;;;;5055709;28;20393;-76
2022/02/25 02:59:02;;;;;;;4.00;1.23;;;;;;;;;;5050840;28;20473;-76
2022/02/25 03:01:29;;;;;;;2.27;1.20;;;;;;;;;;5045706;28;20455;-76
2022/02/25 03:03:56;;;;;;;3.43;1.00;;;;;;;;;;5055107;28;20432;-76
2022/02/25 03:06:23;;;;;;;2.17;1.10;;;;;;;;;;5055326;28;20398;-76
2022/02/25 03:08:49;;;;;;;2.80;1.10;;;;;;;;;;5055102;28;20418;-76
2022/02/25 03:11:16;;;;;;;1.50;1.00;;;;;;;;;;5055257;28;20540;-76
2022/02/25 03:13:42;;;;;;;2.97;1.47;;;;;;;;;;5055430;28;20763;-76
2022/02/25 03:16:08;;;;;;;1.50;0.90;;;;;;;;;;5055015;28;20828;-76
2022/02/25 03:18:34;;;;;;;1.50;0.80;;;;;;;;;;5055078;28;20774;-76
2022/02/25 03:21:00;;;;;;;2.00;1.10;;;;;;;;;;5054912;28;20407;-76
2022/02/25 03:23:26;;;;;;;1.53;1.10;;;;;;;;;;5055457;28;20929;-76
2022/02/25 03:25:52;;;;;;;1.70;1.00;;;;;;;;;;5054398;28;20782;-77
2022/02/25 03:28:18;;;;;;;1.67;1.00;;;;;;;;;;5055148;28;20426;-76
2022/02/25 03:30:44;;;;;;;5.60;1.30;;;;;;;;;;5055012;28;20955;-76
2022/02/25 03:33:10;;;;;;;3.40;1.50;;;;;;;;;;5055283;28;20445;-76
2022/02/25 03:35:38;;;;;;;3.20;1.20;;;;;;;;;;5054334;28;20452;-77
2022/02/25 03:38:04;;;;;;;1.63;1.20;;;;;;;;;;5054155;28;20396;-77
2022/02/25 03:40:30;;;;;;;3.07;1.50;;;;;;;;;;5054607;28;20397;-77
2022/02/25 03:42:56;;;;;;;1.73;1.33;;;;;;;;;;5054490;28;20488;-77
2022/02/25 03:45:23;;;;;;;3.20;1.03;;;;;;;;;;5054722;28;20394;-76
2022/02/25 03:47:49;;;;;;;1.40;0.90;;;;;;;;;;5054734;28;20405;-77
2022/02/25 03:50:15;;;;;;;1.67;1.30;;;;;;;;;;5054231;28;20453;-77
2022/02/25 03:52:41;;;;;;;7.83;1.03;;;;;;;;;;5054195;28;20475;-76
2022/02/25 03:55:08;;;;;;;2.03;1.03;;;;;;;;;;5054457;28;20765;-76
2022/02/25 03:57:34;;;;;;;3.90;1.20;;;;;;;;;;5054336;28;20398;-76
2022/02/25 04:00:00;;;;;;;2.50;1.40;;;;;;;;;;5054100;28;20808;-76
2022/02/25 04:02:26;;;;;;;2.77;1.10;;;;;;;;;;5054188;28;20398;-77
2022/02/25 04:04:52;;;;;;;1.93;1.03;;;;;;;;;;5054420;28;20497;-76
2022/02/25 04:07:18;;;;;;;3.47;1.27;;;;;;;;;;5054061;28;20489;-76
2022/02/25 04:09:44;;;;;;;4.73;1.20;;;;;;;;;;5054205;28;20420;-77
2022/02/25 04:12:10;;;;;;;1.63;1.00;;;;;;;;;;5055134;28;20856;-77
2022/02/25 04:14:36;;;;;;;1.87;0.93;;;;;;;;;;5053874;28;20492;-76
2022/02/25 04:17:03;;;;;;;2.97;1.00;;;;;;;;;;5054259;28;20826;-76
2022/02/25 04:19:30;;;;;;;1.80;1.20;;;;;;;;;;5052443;28;20444;-76
2022/02/25 04:21:57;;;;;;;1.30;0.97;;;;;;;;;;5054024;28;20815;-76
2022/02/25 04:24:24;;;;;;;2.50;1.17;;;;;;;;;;5054420;28;20402;-77
2022/02/25 04:26:50;;;;;;;1.77;0.97;;;;;;;;;;5054103;28;20405;-77
2022/02/25 04:29:17;;;;;;;3.03;1.10;;;;;;;;;;5053434;28;20425;-76
2022/02/25 04:31:43;;;;;;;1.83;1.10;;;;;;;;;;5045740;28;20530;-76
2022/02/25 04:34:09;;;;;;;2.00;1.20;;;;;;;;;;5033614;28;20405;-77
2022/02/25 04:36:36;;;;;;;3.73;1.10;;;;;;;;;;5041479;28;20436;-77
2022/02/25 04:39:05;;;;;;;2.13;1.30;;;;;;;;;;5052754;28;20421;-77
2022/02/25 04:41:31;;;;;;;1.80;1.00;;;;;;;;;;5053545;28;20401;-77
2022/02/25 04:43:57;;;;;;;2.90;1.20;;;;;;;;;;5053237;28;20398;-77
2022/02/25 04:46:25;;;;;;;2.33;1.13;;;;;;;;;;5053145;28;20428;-77
2022/02/25 04:48:52;;;;;;;2.03;1.60;;;;;;;;;;5051762;28;20952;-77
2022/02/25 04:51:19;;;;;;;1.60;1.00;;;;;;;;;;5053327;28;20803;-77
2022/02/25 04:53:45;;;;;;;3.13;1.10;;;;;;;;;;5053202;28;20705;-77
2022/02/25 04:56:12;;;;;;;3.93;1.30;;;;;;;;;;5053336;28;20476;-77
2022/02/25 04:58:38;;;;;;;3.57;1.37;;;;;;;;;;5053133;28;20413;-76
2022/02/25 05:01:05;;;;;;;2.43;1.30;;;;;;;;;;5053677;28;20405;-76
2022/02/25 05:03:32;;;;;;;1.97;1.10;;;;;;;;;;5056398;28;20401;-76
2022/02/25 05:05:59;;;;;;;2.00;1.10;;;;;;;;;;5064318;28;20850;-76
2022/02/25 05:08:25;;;;;;;2.60;1.10;;;;;;;;;;5053236;28;20509;-77
2022/02/25 05:10:52;;;;;;;2.13;1.03;;;;;;;;;;5053289;28;20393;-77
2022/02/25 05:13:18;;;;;;;1.90;1.03;;;;;;;;;;5051823;28;20463;-76
2022/02/25 05:21:13;;;;;;;2.43;1.00;;;;;;;;;;5053179;28;20389;-76
2022/02/25 05:23:39;;;;;;;1.67;1.37;;;;;;;;;;5052805;28;20439;-76
2022/02/25 05:26:05;;;;;;;2.57;1.10;;;;;;;;;;5051621;28;20787;-76
2022/02/25 05:28:31;;;;;;;4.07;1.30;;;;;;;;;;5052922;28;20425;-77
2022/02/25 05:30:58;;;;;;;2.63;1.30;;;;;;;;;;5053037;28;20489;-76
2022/02/25 05:33:24;;;;;;;2.83;1.13;;;;;;;;;;5054023;28;20551;-77
2022/02/25 05:35:50;;;;;;;1.97;1.20;;;;;;;;;;5053305;28;20786;-77
2022/02/25 05:38:16;;;;;;;2.60;1.00;;;;;;;;;;5052665;28;20420;-77
2022/02/25 05:40:42;;;;;;;1.97;1.40;;;;;;;;;;5052676;28;20394;-76
2022/02/25 05:43:08;;;;;;;3.20;1.47;;;;;;;;;;5052770;28;20520;-77
2022/02/25 05:45:34;;;;;;;2.03;1.20;;;;;;;;;;5052763;28;20400;-77
2022/02/25 05:48:00;;;;;;;1.80;1.20;;;;;;;;;;5052613;28;20408;-77
2022/02/25 05:50:26;;;;;;;1.50;1.00;;;;;;;;;;5056474;28;20487;-76
2022/02/25 05:52:52;;;;;;;2.13;1.20;;;;;;;;;;5056592;28;20638;-76
2022/02/25 05:55:20;;;;;;;2.50;1.70;;;;;;;;;;5056472;28;21051;-76
2022/02/25 05:57:47;;;;;;;2.30;1.20;;;;;;;;;;5056456;28;20816;-76
2022/02/25 06:00:15;;;;;;;2.30;1.13;;;;;;;;;;5054976;28;20524;-75
2022/02/25 06:02:45;;;;;;;1.63;1.00;;;;;;;;;;5056430;28;20979;-75
2022/02/25 06:05:11;;;;;;;2.20;1.40;;;;;;;;;;5056749;28;20400;-76
2022/02/25 06:07:38;;;;;;;2.37;1.30;;;;;;;;;;5056757;28;20408;-76
2022/02/25 06:10:05;;;;;;;7.17;1.47;;;;;;;;;;5056671;28;20536;-75
2022/02/25 06:12:31;;;;;;;1.50;1.00;;;;;;;;;;5056185;28;20453;-76
2022/02/25 06:14:57;;;;;;;1.83;1.37;;;;;;;;;;5056056;28;20401;-76
2022/02/25 06:17:23;;;;;;;2.10;1.20;;;;;;;;;;5055929;28;20397;-76
2022/02/25 06:19:49;;;;;;;5.73;1.30;;;;;;;;;;5054531;28;20449;-76
2022/02/25 06:22:16;;;;;;;3.20;1.40;;;;;;;;;;5056036;28;20410;-76
2022/02/25 06:24:42;;;;;;;3.23;1.33;;;;;;;;;;5055911;28;20496;-75
2022/02/25 06:27:08;;;;;;;4.40;3.07;;;;;;;;;;5055887;28;20401;-76
2022/02/25 06:29:34;;;;;;;2.73;1.47;;;;;;;;;;5055779;28;20417;-76
2022/02/25 06:32:00;;;;;;;2.77;1.20;;;;;;;;;;5054768;28;21038;-76
2022/02/25 06:34:26;;;;;;;2.47;1.30;;;;;;;;;;5056224;28;20520;-76
2022/02/25 06:36:53;;;;;;;1.93;1.40;;;;;;;;;;5055932;28;20788;-76
2022/02/25 06:39:19;;;;;;;2.00;1.33;;;;;;;;;;5055659;28;20429;-76
2022/02/25 06:41:45;;;;;;;2.47;1.53;;;;;;;;;;5055547;28;20402;-76
2022/02/25 06:44:11;;;;;;;2.33;1.27;;;;;;;;;;5055421;28;20441;-76
2022/02/25 06:46:38;;;;;;;2.43;1.43;;;;;;;;;;5055594;28;20393;-76
2022/02/25 06:49:04;;;;;;;5.43;2.50;;;;;;;;;;5055284;28;20520;-76
2022/02/25 06:51:31;;;;;;;4.40;1.50;;;;;;;;;;5055586;28;20492;-76
2022/02/25 06:53:57;;;;;;;2.40;1.20;;;;;;;;;;5055481;28;20398;-76
2022/02/25 06:56:23;;;;;;;1.83;1.30;;;;;;;;;;5055257;28;20509;-77
2022/02/25 06:58:49;;;;;;;3.70;1.93;;;;;;;;;;5055241;28;20429;-76
2022/02/25 07:01:15;;;;;;;2.60;1.13;;;;;;;;;;5055072;28;20454;-77
2022/02/25 07:03:42;;;;;;;1.87;1.43;;;;;;;;;;5055376;28;20401;-77
2022/02/25 07:06:08;;;;;;;4.67;1.40;;;;;;;;;;5055243;28;20409;-77
2022/02/25 07:08:34;;;;;;;4.30;1.53;;;;;;;;;;5055202;28;20424;-77
2022/02/25 07:11:00;;;;;;;2.63;1.60;;;;;;;;;;5054004;28;20406;-76
2022/02/25 07:13:26;;;;;;;3.73;1.63;;;;;;;;;;5053891;28;20778;-77
2022/02/25 07:15:53;;;;;;;2.30;1.37;;;;;;;;;;5054094;28;20816;-76
2022/02/25 07:18:19;;;;;;;1.90;1.20;;;;;;;;;;5055257;28;20464;-76
2022/02/25 07:20:47;;;;;;;3.70;1.43;;;;;;;;;;5055878;28;20405;-76
2022/02/25 07:23:13;;;;;;;2.93;1.53;;;;;;;;;;5055348;28;20446;-76
2022/02/25 07:25:40;;;;;;;2.90;2.20;;;;;;;;;;5055624;28;20947;-77
2022/02/25 07:28:06;;;;;;;1.73;1.13;;;;;;;;;;5055521;28;20413;-76
2022/02/25 07:30:33;;;;;;;4.60;1.60;;;;;;;;;;5055387;28;20902;-77
2022/02/25 07:33:00;;;;;;;2.60;1.60;;;;;;;;;;5055385;28;20457;-77
2022/02/25 07:35:26;;;;;;;5.87;1.77;;;;;;;;;;5055093;28;20402;-76
2022/02/25 07:37:52;;;;;;;4.20;1.93;;;;;;;;;;5053488;28;20484;-77
2022/02/25 07:40:18;;;;;;;3.43;1.63;;;;;;;;;;5055129;28;20476;-77
2022/02/25 07:42:45;;;;;;;3.43;1.53;;;;;;;;;;5054944;28;20489;-77
2022/02/25 07:45:12;;;;;;;2.67;1.77;;;;;;;;;;5055037;28;20921;-76
2022/02/25 07:47:38;;;;;;;4.77;1.70;;;;;;;;;;5054514;28;20460;-76
2022/02/25 07:50:05;;;;;;;7.67;1.80;;;;;;;;;;5054112;28;20448;-76
2022/02/25 07:52:31;;;;;;;4.77;1.70;;;;;;;;;;5052581;28;20492;-76
2022/02/25 07:54:57;;;;;;;2.13;1.57;;;;;;;;;;5064507;28;20417;-75
2022/02/25 07:57:23;;;;;;;6.20;1.90;;;;;;;;;;5056224;28;20448;-75
2022/02/25 07:59:50;;;;;;;3.10;1.57;;;;;;;;;;5054333;28;20444;-76
2022/02/25 08:02:16;;;;;;;3.70;1.43;;;;;;;;;;5053290;28;20410;-76
2022/02/25 08:04:42;;;;;;;3.57;1.80;;;;;;;;;;5054657;28;20402;-75
2022/02/25 08:07:08;;;;;;;3.63;1.73;;;;;;;;;;5053282;28;20421;-76
2022/02/25 08:09:34;;;;;;;6.70;1.70;;;;;;;;;;5054344;28;20430;-76
2022/02/25 08:12:00;;;;;;;4.17;1.50;;;;;;;;;;5052840;28;20544;-75
2022/02/25 08:14:26;;;;;;;6.47;1.97;;;;;;;;;;5054485;28;20397;-75
2022/02/25 08:16:52;;;;;;;6.50;1.53;;;;;;;;;;5059163;28;20424;-76
2022/02/25 08:19:19;;;;;;;2.47;1.30;;;;;;;;;;5074496;28;20519;-75
2022/02/25 08:21:45;;;;;;;7.93;1.40;;;;;;;;;;5074536;28;20412;-75
2022/02/25 08:24:11;;;;;;;4.70;1.73;;;;;;;;;;5065026;28;20413;-75
2022/02/25 08:26:37;;;;;;;2.47;1.20;;;;;;;;;;5053853;28;20417;-76
2022/02/25 08:29:03;;;;;;;3.70;1.57;;;;;;;;;;5053482;28;20437;-75
2022/02/25 08:31:29;;;;;;;3.93;1.40;;;;;;;;;;5049565;28;20936;-75
2022/02/25 08:33:55;;;;;;;2.77;1.20;;;;;;;;;;5053505;28;20402;-76
2022/02/25 08:36:23;;;;;;;2.33;1.33;;;;;;;;;;5052351;28;20418;-76
2022/02/25 08:38:49;;;;;;;5.57;1.80;;;;;;;;;;5052441;28;20455;-76
2022/02/25 08:41:15;;;;;;;3.10;1.60;;;;;;;;;;5053585;28;20410;-76
2022/02/25 08:43:42;;;;;;;3.33;1.30;;;;;;;;;;5043813;28;20422;-76
2022/02/25 08:46:09;;;;;;;6.60;1.80;;;;;;;;;;5049950;28;20503;-76
2022/02/25 08:48:35;;;;;;;2.57;1.53;;;;;;;;;;5055874;28;20564;-76
2022/02/25 08:51:01;;;;;;;3.70;1.90;;;;;;;;;;5049624;28;20976;-77
2022/02/25 08:53:27;;;;;;;5.57;1.67;;;;;;;;;;5050448;28;20544;-75
2022/02/25 08:55:53;;;;;;;4.43;1.80;;;;;;;;;;5051871;28;20425;-76
2022/02/25 08:58:20;;;;;;;4.10;1.60;;;;;;;;;;5049729;28;20445;-75
2022/02/25 09:00:46;;;;;;;5.70;1.60;;;;;;;;;;5054618;28;20426;-76
2022/02/25 09:03:12;;;;;;;2.60;1.53;;;;;;;;;;5050682;28;20428;-75
2022/02/25 09:05:39;;;;;;;2.77;1.33;;;;;;;;;;5047912;28;20454;-75
2022/02/25 09:08:05;;;;;;;3.87;1.50;;;;;;;;;;5049724;28;21241;-75
2022/02/25 09:10:31;;;;;;;3.93;1.63;;;;;;;;;;5049893;28;20512;-76
2022/02/25 09:12:57;;;;;;;4.23;1.70;;;;;;;;;;5049950;28;20560;-76
2022/02/25 09:15:26;;;;;;;4.47;1.80;;;;;;;;;;5051672;28;20420;-75
2022/02/25 09:17:57;;;;;;;4.67;1.60;;;;;;;;;;5050298;28;20417;-75
2022/02/25 09:20:23;;;;;;;6.40;1.63;;;;;;;;;;5040522;28;20406;-75
2022/02/25 09:22:50;;;;;;;4.90;1.60;;;;;;;;;;5052235;28;20942;-75
2022/02/25 09:25:16;;;;;;;5.30;1.47;;;;;;;;;;5056468;28;20418;-75
2022/02/25 09:27:44;;;;;;;5.00;1.70;;;;;;;;;;5055727;28;20437;-76
2022/02/25 09:30:10;;;;;;;6.77;1.90;;;;;;;;;;5053067;28;20437;-75
2022/02/25 09:32:37;;;;;;;4.57;1.50;;;;;;;;;;5064077;28;20463;-76
2022/02/25 09:35:04;;;;;;;2.63;1.53;;;;;;;;;;5067056;28;20417;-75
2022/02/25 09:37:34;;;;;;;4.80;1.43;;;;;;;;;;5055914;28;20418;-76
2022/02/25 09:40:01;;;;;;;2.57;1.40;;;;;;;;;;5055554;28;20523;-77
2022/02/25 09:42:27;;;;;;;5.43;1.40;;;;;;;;;;5049587;28;20644;-76
2022/02/25 09:44:53;;;;;;;4.13;1.33;;;;;;;;;;5055184;28;20422;-76
2022/02/25 09:47:19;;;;;;;3.90;1.83;;;;;;;;;;5062995;28;20425;-76
2022/02/25 09:49:45;;;;;;;2.63;1.40;;;;;;;;;;5054900;28;20464;-76
2022/02/25 09:52:15;;;;;;;3.80;1.70;;;;;;;;;;5056466;28;20479;-76
2022/02/25 09:54:42;;;;;;;3.80;1.80;;;;;;;;;;5060587;28;20802;-76
2022/02/25 09:57:08;;;;;;;4.40;1.77;;;;;;;;;;5058562;28;20413;-75
2022/02/25 09:59:34;;;;;;;3.77;1.47;;;;;;;;;;5058881;28;20440;-75
2022/02/25 10:02:05;;;;;;;2.53;1.47;;;;;;;;;;5059150;28;20777;-76
2022/02/25 10:04:31;;;;;;;5.43;2.20;;;;;;;;;;5055096;28;20961;-76
2022/02/25 10:06:57;;;;;;;4.27;1.77;;;;;;;;;;5057137;28;20843;-75
2022/02/25 10:09:33;;;;;;;5.80;1.40;;;;;;;;;;5052205;28;20536;-75
2022/02/25 10:12:02;;;;;;;5.73;1.40;;;;;;;;;;5060978;28;20457;-76
2022/02/25 10:14:32;;;;;;;3.10;1.50;;;;;;;;;;5053654;28;20421;-75
2022/02/25 10:17:08;;;;;;;3.90;1.20;;;;;;;;;;5053390;28;20417;-75
2022/02/25 10:19:34;;;;;;;4.77;1.43;;;;;;;;;;5055457;28;20428;-74
2022/02/25 10:22:17;;;;;;;3.30;1.47;;;;;;;;;;5058322;28;20421;-75
2022/02/25 10:24:44;;;;;;;8.50;2.10;;;;;;;;;;5053773;28;20472;-76
2022/02/25 10:27:18;;;;;;;7.97;1.70;;;;;;;;;;5053119;28;20956;-75
2022/02/25 10:29:51;;;;;;;5.63;1.67;;;;;;;;;;5054042;28;20437;-76
2022/02/25 10:32:18;;;;;;;4.87;1.70;;;;;;;;;;5052369;28;20460;-74
2022/02/25 10:34:44;;;;;;;4.60;1.53;;;;;;;;;;5054424;28;20463;-75
2022/02/25 10:37:11;;;;;;;5.90;3.13;;;;;;;;;;5057856;28;20425;-76
2022/02/25 10:39:37;;;;;;;6.17;1.60;;;;;;;;;;5053943;28;20441;-75
2022/02/25 10:42:04;;;;;;;3.67;1.67;;;;;;;;;;5057369;28;20447;-77
2022/02/25 10:44:44;;;;;;;5.33;1.90;;;;;;;;;;5067176;28;20421;-76
2022/02/25 10:47:24;;;;;;;4.50;1.50;;;;;;;;;;5053852;28;20474;-76
2022/02/25 10:49:58;;;;;;;7.57;1.57;;;;;;;;;;5050520;28;20518;-75
2022/02/25 10:52:35;;;;;;;3.50;1.30;;;;;;;;;;5053177;28;20544;-76
2022/02/25 10:55:03;;;;;;;1.97;1.30;;;;;;;;;;5052552;28;20925;-75
2022/02/25 10:57:29;;;;;;;8.67;1.80;;;;;;;;;;5053957;28;20410;-74
2022/02/25 10:59:56;;;;;;;2.80;1.47;;;;;;;;;;5052623;28;20440;-75
2022/02/25 11:02:22;;;;;;;3.55;1.10;;;;;;;;;;5051753;28;20427;-75
2022/02/25 11:05:07;;;;;;;7.30;1.97;;;;;;;;;;5053843;28;20179;-75
2022/02/25 11:07:34;;;;;;;4.73;1.33;;;;;;;;;;5053046;28;20413;-76
2022/02/25 11:10:00;;;;;;;3.40;1.37;;;;;;;;;;5053188;28;20472;-75
2022/02/25 11:12:28;;;;;;;3.30;1.47;;;;;;;;;;5059796;28;20461;-75
2022/02/25 11:14:54;;;;;;;6.90;1.60;;;;;;;;;;5056484;28;20425;-76
2022/02/25 11:17:21;;;;;;;4.90;1.70;;;;;;;;;;5056179;28;20809;-75
2022/02/25 11:19:48;;;;;;;3.17;1.10;;;;;;;;;;5053593;28;20615;-75
2022/02/25 11:22:14;;;;;;;6.30;2.60;;;;;;;;;;5066064;28;20413;-75
2022/02/25 11:24:41;;;;;;;5.80;1.73;;;;;;;;;;5055104;28;20544;-75
2022/02/25 11:27:07;;;;;;;4.83;1.93;;;;;;;;;;5053945;28;20453;-75
2022/02/25 11:29:43;;;;;;;4.57;1.50;;;;;;;;;;5053483;28;20860;-76
2022/02/25 11:32:12;;;;;;;4.57;1.43;;;;;;;;;;5037683;28;20937;-75
2022/02/25 11:34:38;;;;;;;3.87;1.83;;;;;;;;;;5052593;28;20509;-76
2022/02/25 11:37:04;;;;;;;3.03;1.60;;;;;;;;;;5053061;28;20428;-76
2022/02/25 11:39:31;;;;;;;2.60;1.40;;;;;;;;;;5053924;28;20453;-75
2022/02/25 11:42:04;;;;;;;3.43;1.20;;;;;;;;;;5051151;28;20567;-76
2022/02/25 11:44:35;;;;;;;6.13;1.20;;;;;;;;;;5047799;28;20448;-76
2022/02/25 11:47:02;;;;;;;4.73;1.90;;;;;;;;;;5053095;28;20474;-76
2022/02/25 11:49:30;;;;;;;2.10;1.50;;;;;;;;;;5052600;28;20453;-76
2022/02/25 11:52:06;;;;;;;3.50;1.70;;;;;;;;;;5052809;28;20523;-76
2022/02/25 11:54:34;;;;;;;6.13;1.90;;;;;;;;;;5053027;28;20492;-76
2022/02/25 11:57:03;;;;;;;2.90;1.70;;;;;;;;;;5053354;28;20421;-76
2022/02/25 11:59:32;;;;;;;3.67;1.23;;;;;;;;;;5052315;28;20440;-76
2022/02/25 12:02:04;;;;;;;5.97;1.50;;;;;;;;;;5050757;28;20917;-77
2022/02/25 12:04:39;;;;;;;6.40;1.57;;;;;;;;;;5052101;28;20855;-75
2022/02/25 12:07:10;;;;;;;5.73;1.57;;;;;;;;;;5050540;28;20859;-75
2022/02/25 12:09:46;;;;;;;6.57;1.97;;;;;;;;;;5051705;28;20496;-75
2022/02/25 12:12:24;;;;;;;2.63;1.50;;;;;;;;;;5048054;28;20471;-76
2022/02/25 12:15:09;;;;;;;3.03;1.30;;;;;;;;;;5051299;28;20828;-76
2022/02/25 12:17:53;;;;;;;3.77;1.70;;;;;;;;;;5051617;28;20413;-75
2022/02/25 12:20:19;;;;;;;4.80;1.50;;;;;;;;;;5042057;28;20955;-75
2022/02/25 12:22:58;;;;;;;4.13;1.30;;;;;;;;;;5064072;28;20421;-77
2022/02/25 12:25:39;;;;;;;7.32;1.58;;;;;;;;;;5049372;28;20569;-76
2022/02/25 12:28:14;;;;;;;4.85;1.70;;;;;;;;;;5051318;28;20423;-76
2022/02/25 12:30:43;;;;;;;3.40;1.43;;;;;;;;;;5060009;28;20198;-76
2022/02/25 12:33:28;;;;;;;3.40;1.50;;;;;;;;;;5049450;28;20495;-77
2022/02/25 12:35:56;;;;;;;3.03;1.40;;;;;;;;;;5046666;28;20500;-76
2022/02/25 12:38:26;;;;;;;2.20;1.30;;;;;;;;;;5049471;28;20529;-76
2022/02/25 12:40:53;;;;;;;5.43;1.90;;;;;;;;;;5052577;28;20421;-76
2022/02/25 12:43:19;;;;;;;5.10;1.80;;;;;;;;;;5052779;28;20418;-76
2022/02/25 12:45:46;;;;;;;5.50;1.33;;;;;;;;;;5059696;28;20426;-77
2022/02/25 12:48:12;;;;;;;4.30;1.40;;;;;;;;;;5051332;28;20414;-77
2022/02/25 12:50:44;;;;;;;5.23;1.27;;;;;;;;;;5052154;28;20833;-76
2022/02/25 12:53:11;;;;;;;4.63;1.63;;;;;;;;;;5050576;28;20494;-76
2022/02/25 12:55:51;;;;;;;3.60;1.40;;;;;;;;;;5052559;28;20439;-76
2022/02/25 12:58:17;;;;;;;2.30;1.30;;;;;;;;;;5034603;28;20412;-76
2022/02/25 13:00:58;;;;;;;3.33;1.40;;;;;;;;;;5052538;28;20501;-76
2022/02/25 13:03:24;;;;;;;2.30;1.40;;;;;;;;;;5042642;28;20536;-76
2022/02/25 13:05:54;;;;;;;3.03;1.60;;;;;;;;;;5053316;28;20421;-77
2022/02/25 13:08:20;;;;;;;5.37;1.87;;;;;;;;;;5052230;28;20434;-75
2022/02/25 13:10:59;;;;;;;2.77;1.27;;;;;;;;;;5051240;28;20500;-76
2022/02/25 13:13:25;;;;;;;4.70;1.63;;;;;;;;;;5050927;28;20449;-76
2022/02/25 13:16:05;;;;;;;4.90;1.33;;;;;;;;;;5052935;28;20409;-75
2022/02/25 13:18:31;;;;;;;5.50;1.80;;;;;;;;;;5057304;28;20432;-75
2022/02/25 13:21:07;;;;;;;2.60;1.50;;;;;;;;;;5062783;28;20912;-75
2022/02/25 13:23:34;;;;;;;4.80;1.67;;;;;;;;;;5066848;28;20428;-75
2022/02/25 13:26:02;;;;;;;4.60;1.73;;;;;;;;;;5057017;28;20413;-75
2022/02/25 13:28:28;;;;;;;2.70;1.83;;;;;;;;;;5060708;28;20502;-76
2022/02/25 13:30:54;;;;;;;4.20;1.60;;;;;;;;;;5053172;28;20424;-75
2022/02/25 13:33:21;;;;;;;4.60;1.73;;;;;;;;;;5056010;28;20555;-75
2022/02/25 13:35:53;;;;;;;3.20;1.47;;;;;;;;;;5055684;28;20854;-75
2022/02/25 13:38:24;;;;;;;5.07;1.80;;;;;;;;;;5066554;28;20425;-75
2022/02/25 13:40:53;;;;;;;3.93;1.73;;;;;;;;;;5055408;28;20416;-74
2022/02/25 13:43:22;;;;;;;6.57;2.00;;;;;;;;;;5054818;28;20413;-75
2022/02/25 13:45:48;;;;;;;6.93;2.00;;;;;;;;;;5052629;28;20417;-76
2022/02/25 13:54:01;;;;;;;4.70;1.50;;;;;;;;;;5064328;28;20514;-76
2022/02/25 13:56:29;;;;;;;7.90;2.23;;;;;;;;;;5071201;28;20439;-75
2022/02/25 13:59:04;;;;;;;1.90;1.27;;;;;;;;;;5061970;28;20933;-73
2022/02/25 14:01:30;;;;;;;3.33;1.50;;;;;;;;;;5050816;28;20416;-74
2022/02/25 14:03:56;;;;;;;4.60;1.80;;;;;;;;;;5055195;28;20501;-75
2022/02/25 14:06:27;;;;;;;4.80;1.57;;;;;;;;;;5071333;28;20777;-74
2022/02/25 14:08:53;;;;;;;3.90;1.50;;;;;;;;;;5072690;28;20916;-74
2022/02/25 14:11:29;;;;;;;4.83;1.70;;;;;;;;;;5062480;28;20427;-75
2022/02/25 14:13:55;;;;;;;4.70;1.60;;;;;;;;;;5055558;28;20487;-75
2022/02/25 14:16:25;;;;;;;5.63;1.30;;;;;;;;;;5056061;28;20420;-76
2022/02/25 14:18:51;;;;;;;5.10;1.80;;;;;;;;;;5053236;28;20433;-74
2022/02/25 14:21:27;;;;;;;5.90;1.73;;;;;;;;;;5054899;28;20421;-74
2022/02/25 14:23:54;;;;;;;4.63;1.80;;;;;;;;;;5053658;28;20893;-74
2022/02/25 14:26:27;;;;;;;3.60;1.67;;;;;;;;;;5055492;28;20823;-75
2022/02/25 14:28:53;;;;;;;3.70;1.63;;;;;;;;;;5055434;28;20855;-76
2022/02/25 14:31:24;;;;;;;4.00;1.60;;;;;;;;;;5055093;28;20436;-74
2022/02/25 14:33:50;;;;;;;3.63;1.30;;;;;;;;;;5054569;28;20448;-75
2022/02/25 14:36:17;;;;;;;5.60;1.70;;;;;;;;;;5061355;28;20980;-75
2022/02/25 14:38:45;;;;;;;3.90;1.47;;;;;;;;;;5054798;28;20448;-76
2022/02/25 14:41:12;;;;;;;6.03;1.70;;;;;;;;;;5054233;28;20415;-75
2022/02/25 14:43:38;;;;;;;2.67;1.60;;;;;;;;;;5054073;28;20475;-76
2022/02/25 14:46:04;;;;;;;9.03;1.97;;;;;;;;;;5048403;22;20516;-79
2022/02/25 14:48:31;;;;;;;2.57;1.73;;;;;;;;;;5013364;28;20973;-79
2022/02/25 14:50:58;;;;;;;3.60;1.53;;;;;;;;;;5010146;28;20909;-80
2022/02/25 14:53:25;;;;;;;3.60;1.50;;;;;;;;;;5003414;28;20455;-80
2022/02/25 14:55:51;;;;;;;3.77;2.10;;;;;;;;;;5017088;28;20440;-80